Weather at Andøya Airport, Andenes

Public forecast

Using degrees Celsius for public forecast. Weather courtesy of forecast.io.

Current aviation weather report (METAR) for Andøya Airport, Andenes

Report is more than 6 hours old.

2022/11/14 15:20 (retrieved 2 years ago)

ENAN 141520Z 36009KT 9999 BKN028 04/02 Q1023

Aviation forecast (TAF) for Andøya Airport, Andenes

Forecast is more than 12 hours old.

2023/02/22 20:18 Ammendment (retrieved 1 year ago)

AMD ENAN 2220/2318 16020KT 9999 BKN035 TEMPO 2220/2222 1000 SN VV007 TEMPO 2220/2305 18030KT TEMPO 2300/2318 2000 SHSNRA VV010 TEMPO 2305/2309 21030G40KT BECMG 2308/2310 27025KT TEMPO 2309/2314 27025G40KT PROB30 TEMPO 2309/2311 TS